Disclaimer

Please do not use the information listed here in-flight or in-navigation, as they are not provided to us by the airports but are provided by volunteers, so they might be outdated.

Search


Regions


Airport information page

Radio informations:
Tower (TWR) - 31.8 MHz
MUNCHEN INFO - 120.65 MHz

Airport informations:
Latitude: 49° 13' 05.00" N
Longitude: 011° 50' 10.00" E
Elevation: 1455 feet - 443 meters
Operating hours: Remarks
Operating agency: U.S.ARMY
Timezone: UTC+1(+2DT) - Last Sunday in March to last Sunday in October
Fuel: JP-8, SemiKeroscene MIL Spec T-83133, without icing inhibitor

Runway information:
09/27 - 2187 x 72 feet< - >667 x 22 meters

Recent METARs:
ETIH 201401Z AUTO 02003KT 9999 BKN022 03/03 A2971 RMK AO2 BKN V SCT SLP083 $
ETIH 201426Z AUTO 00000KT 9999 SCT023 03/03 A2972 RMK AO2 SLP087 $
ETIH 201456Z AUTO 00000KT 9999 CLR 02/02 A2973 RMK AO2 SLP090 T00210021 53007 $

Airport on the map: